KPMH/PMH METAR and TAF weather

Enter ICAO airport designator
Station Type Date Time Source
KPMH METAR 2019/08/24 21:56 UTC NOAA

KPMH 242156Z AUTO 03009KT 10SM CLR 26/11 A3014 RMK AO2 T02550108


Station Type Date Time Source
KPMH Decoded METAR 2019/08/24 21:56 UTC NOAA

Station name not available
Aug 24, 2019 - 05:56 PM EDT / 2019.08.24 2156 UTC
Wind: from the NNE (030 degrees) at 10 MPH (9 KT):0
Visibility: 10 mile(s):0
Sky conditions: clear
Temperature: 77.9 F (25.5 C)
Dew Point: 51.4 F (10.8 C)
Relative Humidity: 39%
Pressure (altimeter): 30.14 in. Hg (1020 hPa)
ob: KPMH 242156Z AUTO 03009KT 10SM CLR 26/11 A3014 RMK AO2 T02550108
cycle: 22

Station Type Date Time Source
KPMH TAF UTC NOAA

Error!

Example: see airport list